Terminal Aerodrome Forecast
Issued by NWS

Current Version | Previous Version | Text Only | Print | Product List | Glossary On
Versions: 1 2 3 4 5 6 7 8 9 10 11 12 13
000
FTUS42 KMLB 141735
TAFTIX
TAF
KTIX 141735Z 1418/1518 23008KT P6SM SCT045 SCT230
     FM150000 23003KT P6SM BKN040
     FM151600 23007KT P6SM SCT040 BKN250=

USA.gov is the U.S. government's official web portal to all federal, state and local government web resources and services.